createdAt,value
2022-11-06T00:00:45.345Z,99.90
2022-11-06T00:03:12.155Z,99.90
2022-11-06T00:06:00.861Z,99.90
2022-11-06T00:08:39.570Z,99.90
2022-11-06T00:11:14.911Z,99.90
2022-11-06T00:13:42.746Z,99.90
2022-11-06T00:16:11.303Z,99.90
2022-11-06T00:18:39.221Z,99.90
2022-11-06T00:21:14.267Z,99.90
2022-11-06T00:23:41.938Z,99.90
2022-11-06T00:26:10.752Z,99.90
2022-11-06T00:28:37.957Z,99.90
2022-11-06T00:31:07.003Z,99.90
2022-11-06T00:33:33.981Z,99.90
2022-11-06T00:36:04.211Z,99.90
2022-11-06T00:38:31.634Z,99.90
2022-11-06T00:41:01.851Z,99.90
2022-11-06T00:43:28.547Z,99.90
2022-11-06T00:46:01.486Z,99.90
2022-11-06T00:48:28.166Z,99.90
2022-11-06T00:50:55.071Z,99.90
2022-11-06T00:53:21.822Z,99.90
2022-11-06T00:55:48.544Z,99.90
2022-11-06T00:58:15.463Z,99.90
2022-11-06T01:00:42.434Z,99.90
2022-11-06T01:03:09.184Z,99.90
2022-11-06T01:05:35.994Z,99.90
2022-11-06T01:08:02.678Z,99.90
2022-11-06T01:10:29.352Z,99.90
2022-11-06T01:12:56.059Z,99.90
2022-11-06T01:15:22.693Z,99.90
2022-11-06T01:17:49.301Z,99.90
2022-11-06T01:20:16.009Z,99.90
2022-11-06T01:22:42.650Z,99.90
2022-11-06T01:25:09.398Z,99.90
2022-11-06T01:27:36.345Z,99.90
2022-11-06T01:30:03.660Z,99.90
2022-11-06T01:32:30.326Z,99.90
2022-11-06T01:34:57.241Z,99.90
2022-11-06T01:37:23.937Z,99.90
2022-11-06T01:39:50.766Z,99.90
2022-11-06T01:42:20.774Z,99.90
2022-11-06T01:45:17.403Z,99.90
2022-11-06T01:47:44.593Z,99.90
2022-11-06T01:50:12.628Z,99.90
2022-11-06T01:52:39.628Z,99.90
2022-11-06T01:55:32.937Z,99.90
2022-11-06T01:58:01.820Z,99.90
2022-11-06T02:00:31.014Z,99.90
2022-11-06T02:02:58.472Z,99.90
2022-11-06T02:05:26.166Z,99.90
2022-11-06T02:07:54.771Z,99.90
2022-11-06T02:10:21.932Z,99.90
2022-11-06T02:12:59.714Z,99.90
2022-11-06T02:15:45.002Z,99.90
2022-11-06T02:18:23.811Z,99.90
2022-11-06T02:21:10.140Z,99.90
2022-11-06T02:23:43.050Z,99.90
2022-11-06T02:26:33.899Z,99.90
2022-11-06T02:29:17.220Z,99.90
2022-11-06T02:31:46.418Z,99.90
2022-11-06T02:34:16.581Z,99.90
2022-11-06T02:37:04.819Z,99.90
2022-11-06T02:39:34.268Z,99.90
2022-11-06T02:42:03.838Z,99.90
2022-11-06T02:44:32.832Z,99.90
2022-11-06T02:47:04.768Z,99.90
2022-11-06T02:49:31.487Z,99.90
2022-11-06T02:52:04.719Z,99.90
2022-11-06T02:54:35.764Z,99.90
2022-11-06T02:57:07.313Z,99.90
2022-11-06T02:59:54.472Z,99.90
2022-11-06T03:02:30.425Z,99.90
2022-11-06T03:05:13.908Z,99.90
2022-11-06T03:07:50.806Z,99.90
2022-11-06T03:10:18.009Z,99.90
2022-11-06T03:12:58.098Z,99.90
2022-11-06T03:15:43.306Z,99.90
2022-11-06T03:18:30.761Z,99.90
2022-11-06T03:21:10.430Z,99.90
2022-11-06T03:23:50.341Z,99.90
2022-11-06T03:26:38.376Z,99.90
2022-11-06T03:29:39.791Z,99.90
2022-11-06T03:32:31.878Z,99.90
2022-11-06T03:35:10.973Z,99.90
2022-11-06T03:37:44.187Z,99.90
2022-11-06T03:40:16.705Z,99.90
2022-11-06T03:42:46.330Z,99.90
2022-11-06T03:45:18.284Z,99.90
2022-11-06T03:47:54.738Z,99.90
2022-11-06T03:50:34.731Z,99.90
2022-11-06T03:53:14.401Z,99.90
2022-11-06T03:56:24.302Z,99.90
2022-11-06T03:58:51.614Z,99.90
2022-11-06T04:01:23.739Z,99.90
2022-11-06T04:04:02.575Z,99.90
2022-11-06T04:06:32.774Z,99.90
2022-11-06T04:09:22.500Z,99.90
2022-11-06T04:12:08.851Z,99.90
2022-11-06T04:14:38.624Z,99.90
2022-11-06T04:17:08.744Z,99.90
2022-11-06T04:19:35.418Z,99.90
2022-11-06T04:22:44.305Z,99.90
2022-11-06T04:25:51.774Z,99.90
2022-11-06T04:28:25.268Z,99.90
2022-11-06T04:30:51.905Z,99.90
2022-11-06T04:33:41.427Z,99.90
2022-11-06T04:36:18.174Z,99.90
2022-11-06T04:38:59.439Z,99.90
2022-11-06T04:41:42.315Z,99.90
2022-11-06T04:44:19.766Z,99.90
2022-11-06T04:46:53.164Z,99.90
2022-11-06T04:49:21.517Z,99.90
2022-11-06T04:51:48.989Z,99.90
2022-11-06T04:54:16.515Z,99.90
2022-11-06T04:56:46.228Z,99.90
2022-11-06T04:59:16.578Z,99.90
2022-11-06T05:01:43.758Z,99.90
2022-11-06T05:04:12.067Z,99.90
2022-11-06T05:06:38.769Z,99.90
2022-11-06T05:09:05.499Z,99.90
2022-11-06T05:11:32.274Z,99.90
2022-11-06T05:13:58.964Z,99.90
2022-11-06T05:16:25.629Z,99.90
2022-11-06T05:18:52.367Z,99.90
2022-11-06T05:21:37.479Z,99.90
2022-11-06T05:24:04.596Z,99.90
2022-11-06T05:26:31.241Z,99.90
2022-11-06T05:28:58.030Z,99.90
2022-11-06T05:31:25.792Z,99.90
2022-11-06T05:33:52.476Z,99.90
2022-11-06T05:36:19.352Z,99.90
2022-11-06T05:38:46.107Z,99.90
2022-11-06T05:41:12.812Z,99.90
2022-11-06T05:43:39.606Z,99.90
2022-11-06T05:46:15.012Z,99.90
2022-11-06T05:48:50.843Z,99.90
2022-11-06T05:51:18.129Z,99.90
2022-11-06T05:53:44.827Z,99.90
2022-11-06T05:56:11.617Z,99.90
2022-11-06T05:58:38.582Z,99.90
2022-11-06T06:01:05.384Z,99.90
2022-11-06T06:03:32.162Z,99.90
2022-11-06T06:05:58.885Z,99.90
2022-11-06T06:08:25.592Z,99.90
2022-11-06T06:10:52.295Z,99.90
2022-11-06T06:13:18.966Z,99.90
2022-11-06T06:15:46.327Z,99.90
2022-11-06T06:18:13.641Z,99.90
2022-11-06T06:20:40.592Z,99.90
2022-11-06T06:23:09.639Z,99.90
2022-11-06T06:25:36.463Z,99.90
2022-11-06T06:28:03.252Z,99.90
2022-11-06T06:30:30.009Z,99.90
2022-11-06T06:32:56.655Z,99.90
2022-11-06T06:35:23.976Z,99.90
2022-11-06T06:37:52.520Z,99.90
2022-11-06T06:40:19.418Z,99.90
2022-11-06T06:42:46.311Z,99.90
2022-11-06T06:45:14.613Z,99.90
2022-11-06T06:47:41.650Z,99.90
2022-11-06T06:50:09.115Z,99.90
2022-11-06T06:52:35.847Z,99.90
2022-11-06T06:55:02.618Z,99.90
2022-11-06T06:57:29.282Z,99.90
2022-11-06T06:59:55.912Z,99.90
2022-11-06T07:02:22.691Z,99.90
2022-11-06T07:04:49.472Z,99.90
2022-11-06T07:07:16.205Z,99.90
2022-11-06T07:09:42.917Z,99.90
2022-11-06T07:12:09.822Z,99.90
2022-11-06T07:14:36.673Z,99.90
2022-11-06T07:17:03.372Z,99.90
2022-11-06T07:19:30.136Z,99.90
2022-11-06T07:21:56.818Z,99.90
2022-11-06T07:24:23.460Z,99.90
2022-11-06T07:26:50.180Z,99.90
2022-11-06T07:29:17.228Z,99.90
2022-11-06T07:31:43.891Z,99.90
2022-11-06T07:34:10.643Z,99.90
2022-11-06T07:36:37.290Z,99.90
2022-11-06T07:39:04.062Z,99.90
2022-11-06T07:41:30.847Z,99.90
2022-11-06T07:43:57.578Z,99.90
2022-11-06T07:46:24.295Z,99.90
2022-11-06T07:48:51.074Z,99.90
2022-11-06T07:51:17.716Z,99.90
2022-11-06T07:53:44.384Z,99.90
2022-11-06T07:56:11.358Z,99.90
2022-11-06T07:58:38.693Z,99.90
2022-11-06T08:01:05.678Z,99.90
2022-11-06T08:03:32.597Z,99.90
2022-11-06T08:06:02.620Z,99.90
2022-11-06T08:08:29.393Z,99.90
2022-11-06T08:10:56.345Z,99.90
2022-11-06T08:13:23.080Z,99.90
2022-11-06T08:15:49.897Z,99.90
2022-11-06T08:18:17.433Z,99.90
2022-11-06T08:20:44.365Z,99.90
2022-11-06T08:23:13.633Z,99.90
2022-11-06T08:25:40.906Z,99.90
2022-11-06T08:28:07.897Z,99.90
2022-11-06T08:30:34.587Z,99.90
2022-11-06T08:33:04.073Z,99.90
2022-11-06T08:35:31.298Z,99.90
2022-11-06T08:37:57.985Z,99.90
2022-11-06T08:40:30.407Z,99.90
2022-11-06T08:43:02.337Z,99.90
2022-11-06T08:45:30.128Z,99.90
2022-11-06T08:48:02.205Z,99.90
2022-11-06T08:50:29.894Z,99.90
2022-11-06T08:53:04.464Z,99.90
2022-11-06T08:55:32.005Z,99.90
2022-11-06T08:57:58.833Z,99.90
2022-11-06T09:00:25.820Z,99.90
2022-11-06T09:02:59.056Z,99.90
2022-11-06T09:05:25.977Z,99.90
2022-11-06T09:07:52.699Z,99.90
2022-11-06T09:10:19.898Z,99.90
2022-11-06T09:12:46.599Z,99.90
2022-11-06T09:15:14.128Z,99.90
2022-11-06T09:17:45.386Z,99.90
2022-11-06T09:20:13.674Z,99.90
2022-11-06T09:22:41.080Z,99.90
2022-11-06T09:25:09.305Z,99.90
2022-11-06T09:27:47.269Z,99.90
2022-11-06T09:30:16.728Z,99.90
2022-11-06T09:32:49.396Z,99.90
2022-11-06T09:35:16.291Z,99.90
2022-11-06T09:37:42.962Z,99.90
2022-11-06T09:40:20.775Z,99.90
2022-11-06T09:42:59.523Z,99.90
2022-11-06T09:45:30.133Z,99.90
2022-11-06T09:47:59.849Z,99.90
2022-11-06T09:50:31.900Z,99.90
2022-11-06T09:53:07.461Z,99.90
2022-11-06T09:55:39.638Z,99.90
2022-11-06T09:58:18.325Z,99.90
2022-11-06T10:00:45.409Z,99.90
2022-11-06T10:03:21.032Z,99.90
2022-11-06T10:05:47.816Z,99.90
2022-11-06T10:08:27.041Z,99.90
2022-11-06T10:11:06.748Z,99.90
2022-11-06T10:13:36.661Z,99.90
2022-11-06T10:16:07.336Z,99.90
2022-11-06T10:18:52.548Z,99.90
2022-11-06T10:21:19.156Z,99.90
2022-11-06T10:23:59.697Z,99.90
2022-11-06T10:26:41.985Z,99.90
2022-11-06T10:29:47.599Z,99.90
2022-11-06T10:32:34.496Z,99.90
2022-11-06T10:35:25.624Z,99.90
2022-11-06T10:38:13.652Z,99.90
2022-11-06T10:40:43.886Z,99.90
2022-11-06T10:43:42.331Z,99.90
2022-11-06T10:46:48.919Z,99.90
2022-11-06T10:49:21.515Z,99.90
2022-11-06T10:51:50.989Z,99.90
2022-11-06T10:54:26.217Z,99.90
2022-11-06T10:57:07.876Z,99.90
2022-11-06T10:59:35.019Z,99.90
2022-11-06T11:02:03.342Z,98.50
2022-11-06T11:04:32.311Z,96.60
2022-11-06T11:07:21.351Z,96.60
2022-11-06T11:09:50.625Z,97.30
2022-11-06T11:12:35.582Z,97.20
2022-11-06T11:15:18.397Z,96.30
2022-11-06T11:18:07.945Z,95.80
2022-11-06T11:20:36.962Z,97.20
2022-11-06T11:23:23.492Z,97.50
2022-11-06T11:25:55.587Z,97.70
2022-11-06T11:28:42.827Z,97.50
2022-11-06T11:31:16.194Z,98.50
2022-11-06T11:33:52.843Z,98.90
2022-11-06T11:36:19.787Z,99.30
2022-11-06T11:38:46.594Z,99.60
2022-11-06T11:41:22.536Z,99.30
2022-11-06T11:44:06.042Z,99.00
2022-11-06T11:46:34.079Z,98.50
2022-11-06T11:49:02.155Z,98.40
2022-11-06T11:51:44.645Z,98.00
2022-11-06T11:54:14.083Z,97.00
2022-11-06T11:57:05.845Z,96.30
2022-11-06T11:59:39.603Z,94.80
2022-11-06T12:02:29.407Z,94.70
2022-11-06T12:05:21.740Z,94.20
2022-11-06T12:07:53.399Z,94.00
2022-11-06T12:10:39.497Z,90.50
2022-11-06T12:13:21.163Z,86.20
2022-11-06T12:16:16.166Z,79.10
2022-11-06T12:18:47.863Z,71.30
2022-11-06T12:21:21.565Z,70.80
2022-11-06T12:23:59.813Z,70.50
2022-11-06T12:26:26.457Z,71.80
2022-11-06T12:29:05.151Z,69.70
2022-11-06T12:31:53.555Z,66.40
2022-11-06T12:34:44.087Z,64.70
2022-11-06T12:37:40.911Z,68.90
2022-11-06T12:40:29.557Z,60.10
2022-11-06T12:43:22.286Z,58.70
2022-11-06T12:45:49.571Z,57.90
2022-11-06T12:48:47.976Z,52.40
2022-11-06T12:51:21.330Z,51.80
2022-11-06T12:54:06.616Z,47.20
2022-11-06T12:57:12.702Z,46.60
2022-11-06T13:00:13.375Z,46.20
2022-11-06T13:03:14.500Z,47.30
2022-11-06T13:06:05.925Z,46.80
2022-11-06T13:08:43.529Z,47.80
2022-11-06T13:11:34.895Z,46.00
2022-11-06T13:14:06.692Z,45.90
2022-11-06T13:16:57.198Z,46.00
2022-11-06T13:19:43.115Z,46.80
2022-11-06T13:22:37.470Z,51.20
2022-11-06T13:25:39.308Z,53.90
2022-11-06T13:28:40.049Z,50.30
2022-11-06T13:31:09.475Z,54.90
2022-11-06T13:33:46.850Z,54.20
2022-11-06T13:36:14.847Z,52.90
2022-11-06T13:38:47.297Z,53.60
2022-11-06T13:41:27.806Z,53.10
2022-11-06T13:44:02.282Z,55.40
2022-11-06T13:47:04.896Z,54.90
2022-11-06T13:49:58.024Z,54.30
2022-11-06T13:52:36.729Z,56.80
2022-11-06T13:55:17.862Z,60.70
2022-11-06T13:58:40.050Z,59.90
2022-11-06T14:01:09.777Z,61.60
2022-11-06T14:04:08.293Z,64.20
2022-11-06T14:06:36.334Z,66.60
2022-11-06T14:09:11.267Z,70.90
2022-11-06T14:11:44.996Z,71.80
2022-11-06T14:14:23.060Z,73.40
2022-11-06T14:17:17.692Z,74.90
2022-11-06T14:19:51.065Z,77.30
2022-11-06T14:22:33.794Z,79.70
2022-11-06T14:25:02.334Z,81.20
2022-11-06T14:27:29.310Z,87.20
2022-11-06T14:30:07.021Z,91.40
2022-11-06T14:32:42.531Z,93.90
2022-11-06T14:35:27.965Z,95.20
2022-11-06T14:38:09.962Z,93.50
2022-11-06T14:40:39.809Z,94.90
2022-11-06T14:43:21.567Z,94.70
2022-11-06T14:46:04.637Z,95.20
2022-11-06T14:48:38.739Z,97.40
2022-11-06T14:51:07.950Z,98.40
2022-11-06T14:53:51.379Z,97.40
2022-11-06T14:56:24.525Z,98.90
2022-11-06T14:58:55.907Z,99.00
2022-11-06T15:01:29.433Z,99.20
2022-11-06T15:04:01.036Z,97.50
2022-11-06T15:06:33.569Z,99.10
2022-11-06T15:09:07.842Z,99.80
2022-11-06T15:11:46.611Z,98.30
2022-11-06T15:14:14.697Z,96.60
2022-11-06T15:16:52.061Z,99.30
2022-11-06T15:19:26.462Z,99.90
2022-11-06T15:21:53.126Z,99.90
2022-11-06T15:24:27.688Z,99.90
2022-11-06T15:26:59.313Z,99.90
2022-11-06T15:29:28.968Z,99.90
2022-11-06T15:32:15.868Z,99.90
2022-11-06T15:34:53.476Z,99.90
2022-11-06T15:37:24.014Z,99.90
2022-11-06T15:39:59.146Z,99.90
2022-11-06T15:42:35.325Z,99.90
2022-11-06T15:45:17.040Z,99.90
2022-11-06T15:47:54.121Z,99.90
2022-11-06T15:50:37.277Z,99.90
2022-11-06T15:53:16.076Z,99.90
2022-11-06T15:56:02.138Z,99.90
2022-11-06T15:58:32.278Z,99.90
2022-11-06T16:01:00.770Z,99.90
2022-11-06T16:03:31.221Z,99.90
2022-11-06T16:06:01.910Z,99.90
2022-11-06T16:08:30.386Z,99.90
2022-11-06T16:10:58.655Z,99.90
2022-11-06T16:13:26.294Z,99.90
2022-11-06T16:16:02.372Z,99.90
2022-11-06T16:18:42.750Z,99.90
2022-11-06T16:21:19.629Z,99.90
2022-11-06T16:23:48.426Z,99.90
2022-11-06T16:26:23.029Z,99.90
2022-11-06T16:28:51.539Z,99.90
2022-11-06T16:31:22.267Z,99.90
2022-11-06T16:34:19.562Z,99.90
2022-11-06T16:37:07.914Z,99.90
2022-11-06T16:39:53.084Z,99.90
2022-11-06T16:42:22.944Z,99.90
2022-11-06T16:44:51.648Z,99.90
2022-11-06T16:47:20.564Z,99.90
2022-11-06T16:49:55.134Z,99.90
2022-11-06T16:52:33.008Z,99.90
2022-11-06T16:55:28.264Z,99.90
2022-11-06T16:57:59.308Z,99.90
2022-11-06T17:00:29.232Z,99.90
2022-11-06T17:03:02.791Z,99.90
2022-11-06T17:05:36.675Z,99.90
2022-11-06T17:08:06.110Z,99.90
2022-11-06T17:10:37.354Z,99.90
2022-11-06T17:13:19.369Z,99.90
2022-11-06T17:15:49.174Z,99.90
2022-11-06T17:18:22.478Z,99.90
2022-11-06T17:20:57.906Z,99.90
2022-11-06T17:23:26.041Z,99.90
2022-11-06T17:25:56.995Z,99.90
2022-11-06T17:28:23.748Z,99.90
2022-11-06T17:30:51.299Z,99.90
2022-11-06T17:33:17.993Z,99.90
2022-11-06T17:35:46.643Z,99.90
2022-11-06T17:38:14.778Z,99.90
2022-11-06T17:40:42.474Z,99.90
2022-11-06T17:43:09.325Z,99.90
2022-11-06T17:45:36.917Z,99.90
2022-11-06T17:48:03.810Z,99.90
2022-11-06T17:50:31.614Z,99.90
2022-11-06T17:52:59.131Z,99.90
2022-11-06T17:55:25.780Z,99.90
2022-11-06T17:57:52.491Z,99.90
2022-11-06T18:00:20.821Z,99.90
2022-11-06T18:03:00.806Z,99.90
2022-11-06T18:05:28.609Z,99.90
2022-11-06T18:07:55.360Z,99.90
2022-11-06T18:10:26.048Z,99.90
2022-11-06T18:12:55.825Z,99.90
2022-11-06T18:15:22.502Z,99.90
2022-11-06T18:17:49.186Z,99.90
2022-11-06T18:20:15.879Z,99.90
2022-11-06T18:22:42.495Z,99.90
2022-11-06T18:25:09.408Z,99.90
2022-11-06T18:27:36.276Z,99.90
2022-11-06T18:30:03.255Z,99.90
2022-11-06T18:32:30.028Z,99.90
2022-11-06T18:34:56.933Z,99.90
2022-11-06T18:37:25.837Z,99.90
2022-11-06T18:39:52.472Z,99.90
2022-11-06T18:42:19.169Z,99.90
2022-11-06T18:44:45.814Z,99.90
2022-11-06T18:47:12.478Z,99.90
2022-11-06T18:49:39.329Z,99.90
2022-11-06T18:52:06.002Z,99.90
2022-11-06T18:54:32.731Z,99.90
2022-11-06T18:56:59.571Z,99.90
2022-11-06T18:59:27.853Z,99.90
2022-11-06T19:01:54.648Z,99.90
2022-11-06T19:04:22.012Z,99.90
2022-11-06T19:06:49.211Z,99.90
2022-11-06T19:09:15.957Z,99.90
2022-11-06T19:11:42.850Z,99.90
2022-11-06T19:14:09.662Z,99.90
2022-11-06T19:16:36.660Z,99.90
2022-11-06T19:19:05.789Z,99.90
2022-11-06T19:21:34.128Z,99.90
2022-11-06T19:24:03.985Z,99.90
2022-11-06T19:26:32.972Z,99.90
2022-11-06T19:29:00.616Z,99.90
2022-11-06T19:31:29.132Z,99.90
2022-11-06T19:33:57.549Z,99.90
2022-11-06T19:36:25.216Z,99.90
2022-11-06T19:38:52.320Z,99.90
2022-11-06T19:41:19.221Z,99.90
2022-11-06T19:43:46.006Z,99.90
2022-11-06T19:46:12.642Z,99.90
2022-11-06T19:48:40.984Z,99.90
2022-11-06T19:51:12.875Z,99.90
2022-11-06T19:53:41.070Z,99.90
2022-11-06T19:56:09.884Z,99.90
2022-11-06T19:58:36.715Z,99.90
2022-11-06T20:01:13.032Z,99.90
2022-11-06T20:03:40.294Z,99.90
2022-11-06T20:06:08.192Z,99.90
2022-11-06T20:08:37.067Z,99.90
2022-11-06T20:11:05.400Z,99.90
2022-11-06T20:13:39.279Z,99.90
2022-11-06T20:16:07.909Z,99.90
2022-11-06T20:18:37.800Z,99.90
2022-11-06T20:21:11.084Z,99.90
2022-11-06T20:23:38.438Z,99.90
2022-11-06T20:26:06.285Z,99.90
2022-11-06T20:28:33.820Z,99.90
2022-11-06T20:31:05.294Z,99.90
2022-11-06T20:33:31.973Z,99.90
2022-11-06T20:35:58.779Z,99.90
2022-11-06T20:38:25.815Z,99.90
2022-11-06T20:40:56.953Z,99.90
2022-11-06T20:43:23.716Z,99.90
2022-11-06T20:45:50.778Z,99.90
2022-11-06T20:48:17.961Z,99.90
2022-11-06T20:50:44.843Z,99.90
2022-11-06T20:53:11.660Z,99.90
2022-11-06T20:55:38.550Z,99.90
2022-11-06T20:58:05.635Z,99.90
2022-11-06T21:00:32.406Z,99.90
2022-11-06T21:03:02.011Z,99.90
2022-11-06T21:05:28.963Z,99.90
2022-11-06T21:07:55.818Z,99.90
2022-11-06T21:10:23.146Z,99.90
2022-11-06T21:12:49.874Z,99.90
2022-11-06T21:15:16.737Z,99.90
2022-11-06T21:17:43.731Z,99.90
2022-11-06T21:20:11.147Z,99.90
2022-11-06T21:22:37.871Z,99.90
2022-11-06T21:25:04.815Z,99.90
2022-11-06T21:27:31.701Z,99.90
2022-11-06T21:29:58.519Z,99.90
2022-11-06T21:32:25.260Z,99.90
2022-11-06T21:34:52.254Z,99.90
2022-11-06T21:37:19.032Z,99.90
2022-11-06T21:39:46.730Z,99.90
2022-11-06T21:42:13.447Z,99.90
2022-11-06T21:44:40.169Z,99.90
2022-11-06T21:47:06.870Z,99.90
2022-11-06T21:49:33.578Z,99.90
2022-11-06T21:52:22.840Z,99.90
2022-11-06T21:55:10.623Z,99.90
2022-11-06T21:57:37.288Z,99.90
2022-11-06T22:00:04.359Z,99.90
2022-11-06T22:02:31.136Z,99.90
2022-11-06T22:04:57.867Z,99.90
2022-11-06T22:07:24.554Z,99.90
2022-11-06T22:09:52.304Z,99.90
2022-11-06T22:12:18.974Z,99.90
2022-11-06T22:14:45.581Z,99.90
2022-11-06T22:17:12.237Z,99.90
2022-11-06T22:19:39.655Z,99.90
2022-11-06T22:22:06.352Z,99.90
2022-11-06T22:24:33.069Z,99.90
2022-11-06T22:26:59.859Z,99.90
2022-11-06T22:29:26.491Z,99.90
2022-11-06T22:31:53.269Z,99.90
2022-11-06T22:34:19.911Z,99.90
2022-11-06T22:36:46.589Z,99.90
2022-11-06T22:39:13.402Z,99.90
2022-11-06T22:41:40.483Z,99.90
2022-11-06T22:44:07.533Z,99.90
2022-11-06T22:46:34.690Z,99.90
2022-11-06T22:49:01.533Z,99.90
2022-11-06T22:51:30.263Z,99.90
2022-11-06T22:53:57.146Z,99.90
2022-11-06T22:56:25.164Z,99.90
2022-11-06T22:59:08.511Z,99.90
2022-11-06T23:01:41.563Z,99.90
2022-11-06T23:04:14.882Z,99.90
2022-11-06T23:06:42.894Z,99.90
2022-11-06T23:09:09.691Z,99.90
2022-11-06T23:11:36.622Z,99.90
2022-11-06T23:14:08.331Z,99.90
2022-11-06T23:16:54.775Z,99.90
2022-11-06T23:19:21.826Z,99.90
2022-11-06T23:21:48.755Z,99.90
2022-11-06T23:24:15.568Z,99.90
2022-11-06T23:26:44.125Z,99.90
2022-11-06T23:29:10.848Z,99.90
2022-11-06T23:31:37.599Z,99.90
2022-11-06T23:34:04.236Z,99.90
2022-11-06T23:36:30.987Z,99.90
2022-11-06T23:38:57.790Z,99.90
2022-11-06T23:41:42.991Z,99.90
2022-11-06T23:44:29.939Z,99.90
2022-11-06T23:46:57.128Z,99.90
2022-11-06T23:49:24.070Z,99.90
2022-11-06T23:51:50.813Z,99.90
2022-11-06T23:54:17.766Z,99.90
2022-11-06T23:56:44.540Z,99.90
2022-11-06T23:59:11.277Z,99.90
